Time;durP1;ratioP1;P1;durP2;ratioP2;P2;SDS_P1;SDS_P2;PMS_P1;PMS_P2;Temp;Humidity;BMP_temperature;BMP_pressure;BME280_temperature;BME280_humidity;BME280_pressure;Samples;Min_cycle;Max_cycle;Signal;HPM_P1;HPM_P2
2022/11/12 00:02:02;;;;;;;11.45;4.20;;;16.30;99.90;;;;;;5050868;28;20605;-79
2022/11/12 00:04:48;;;;;;;14.48;4.60;;;16.30;99.90;;;;;;5050543;28;20056;-78
2022/11/12 00:07:35;;;;;;;9.25;3.95;;;16.30;99.90;;;;;;5046757;28;20189;-81
2022/11/12 00:10:22;;;;;;;7.10;4.38;;;16.30;99.90;;;;;;5047845;28;20734;-80
2022/11/12 00:13:08;;;;;;;;;;;16.30;99.90;;;;;;5036110;28;20056;-79
2022/11/12 00:15:54;;;;;;;5.75;3.72;;;16.30;99.90;;;;;;5051264;28;19972;-78
2022/11/12 00:18:40;;;;;;;5.45;3.95;;;16.20;99.90;;;;;;5067636;28;20430;-78
2022/11/12 00:21:26;;;;;;;9.13;4.00;;;16.20;99.90;;;;;;5052045;28;20443;-80
2022/11/12 00:24:12;;;;;;;6.90;3.47;;;16.10;99.90;;;;;;5038917;28;20131;-78
2022/11/12 00:26:59;;;;;;;7.78;3.95;;;16.10;99.90;;;;;;5060999;28;20127;-80
2022/11/12 00:29:45;;;;;;;13.80;6.45;;;16.10;99.90;;;;;;5053541;28;20037;-78
2022/11/12 00:32:31;;;;;;;8.63;4.15;;;16.10;99.90;;;;;;5055120;28;20048;-80
2022/11/12 00:35:17;;;;;;;12.60;4.70;;;16.10;99.90;;;;;;5046368;28;20045;-79
2022/11/12 00:38:03;;;;;;;8.07;4.53;;;16.10;99.90;;;;;;5044998;28;20070;-80
2022/11/12 00:40:50;;;;;;;8.02;3.70;;;16.00;99.90;;;;;;5058779;28;20040;-79
2022/11/12 00:43:36;;;;;;;8.80;4.75;;;16.00;99.90;;;;;;5053188;28;20074;-81
2022/11/12 00:46:22;;;;;;;7.63;3.95;;;16.00;99.90;;;;;;5054852;28;20045;-79
2022/11/12 00:49:08;;;;;;;6.05;3.90;;;15.90;99.90;;;;;;5055323;28;20410;-80
2022/11/12 00:51:55;;;;;;;7.68;4.45;;;15.90;99.90;;;;;;5063405;28;20085;-79
2022/11/12 00:54:41;;;;;;;9.20;6.10;;;15.80;99.90;;;;;;5051911;28;20045;-80
2022/11/12 00:57:27;;;;;;;14.00;4.75;;;15.80;99.90;;;;;;5048589;28;20388;-79
2022/11/12 01:00:20;;;;;;;7.78;4.35;;;15.70;99.90;;;;;;5036465;28;20136;-79
2022/11/12 01:03:06;;;;;;;5.80;3.47;;;15.70;99.90;;;;;;5054155;28;20142;-79
2022/11/12 01:05:52;;;;;;;7.35;4.30;;;15.70;99.90;;;;;;5053881;28;20040;-79
2022/11/12 01:08:39;;;;;;;7.20;4.95;;;15.70;99.90;;;;;;5052487;28;20040;-80
2022/11/12 01:11:29;;;;;;;8.70;3.92;;;15.60;99.90;;;;;;5053440;28;20131;-79
2022/11/12 01:14:15;;;;;;;12.77;4.68;;;15.60;99.90;;;;;;5067502;28;20056;-84
2022/11/12 01:17:01;;;;;;;11.88;5.25;;;15.60;99.90;;;;;;5034843;28;20122;-75
2022/11/12 01:19:48;;;;;;;7.65;4.82;;;15.50;99.90;;;;;;5053897;28;20053;-77
2022/11/12 01:22:34;;;;;;;11.70;4.78;;;15.40;99.90;;;;;;5058572;28;20497;-77
2022/11/12 01:25:21;;;;;;;11.70;4.90;;;15.40;99.90;;;;;;5057964;28;20473;-77
2022/11/12 01:28:07;;;;;;;6.38;3.70;;;15.40;99.90;;;;;;5058153;28;20052;-78
2022/11/12 01:30:53;;;;;;;10.13;5.22;;;15.30;99.90;;;;;;5071726;28;20072;-76
2022/11/12 01:33:41;;;;;;;16.20;5.10;;;15.30;99.90;;;;;;5059698;28;20132;-76
2022/11/12 01:36:39;;;;;;;9.50;4.38;;;15.30;99.90;;;;;;5068761;28;20040;-76
2022/11/12 01:39:25;;;;;;;11.02;4.60;;;15.30;99.90;;;;;;5053075;28;20037;-76
2022/11/12 01:42:11;;;;;;;8.77;4.55;;;15.30;99.90;;;;;;5063004;28;20498;-76
2022/11/12 01:44:57;;;;;;;10.23;5.85;;;15.20;99.90;;;;;;5067528;28;20067;-76
2022/11/12 01:47:48;;;;;;;12.73;6.22;;;15.30;99.90;;;;;;5069694;28;20166;-76
2022/11/12 01:50:37;;;;;;;8.90;4.55;;;15.20;99.90;;;;;;5053326;28;20398;-77
2022/11/12 01:53:25;;;;;;;7.07;4.60;;;15.20;99.90;;;;;;5041664;28;20037;-76
2022/11/12 01:56:12;;;;;;;10.45;4.63;;;15.20;99.90;;;;;;5054160;28;20041;-78
2022/11/12 01:59:07;;;;;;;11.32;5.68;;;15.20;99.90;;;;;;5063952;28;20124;-78
2022/11/12 02:01:53;;;;;;;7.60;4.90;;;15.20;99.90;;;;;;5050018;28;20052;-75
2022/11/12 02:04:42;;;;;;;8.63;4.70;;;15.10;99.90;;;;;;5052177;28;20118;-74
2022/11/12 02:07:30;;;;;;;9.02;4.75;;;15.10;99.90;;;;;;5068816;28;20053;-76
2022/11/12 02:10:16;;;;;;;7.68;3.85;;;15.10;99.90;;;;;;5062347;28;20496;-77
2022/11/12 02:16:08;;;;;;;7.88;4.25;;;15.00;99.90;;;;;;5061423;28;20432;-78
2022/11/12 02:18:54;;;;;;;8.07;4.63;;;15.00;99.90;;;;;;5068155;28;20101;-75
2022/11/12 02:21:41;;;;;;;10.85;4.40;;;15.10;99.90;;;;;;5042988;28;20052;-77
2022/11/12 02:24:30;;;;;;;;;;;15.00;99.90;;;;;;5066034;28;20048;-81
2022/11/12 02:27:17;;;;;;;9.63;4.35;;;15.00;99.90;;;;;;5071010;28;19929;-75
2022/11/12 02:30:05;;;;;;;9.63;3.85;;;15.10;99.90;;;;;;5051527;28;20487;-77
2022/11/12 02:32:51;;;;;;;8.75;4.65;;;15.10;99.90;;;;;;5044453;28;20526;-77
2022/11/12 02:35:38;;;;;;;11.73;4.50;;;15.00;99.90;;;;;;5060441;28;20621;-78
2022/11/12 02:38:26;;;;;;;7.80;4.78;;;15.00;99.90;;;;;;5068071;28;20037;-75
2022/11/12 02:41:12;;;;;;;11.75;5.90;;;14.90;99.90;;;;;;5066559;28;20056;-77
2022/11/12 02:43:58;;;;;;;11.30;5.65;;;14.90;99.90;;;;;;5051763;28;20097;-78
2022/11/12 02:46:46;;;;;;;6.82;4.75;;;14.90;99.90;;;;;;5066768;28;20040;-77
2022/11/12 02:49:33;;;;;;;9.07;4.97;;;14.80;99.90;;;;;;5054186;28;20044;-77
2022/11/12 02:52:19;;;;;;;14.40;4.57;;;14.80;99.90;;;;;;5068413;28;20048;-78
2022/11/12 02:55:10;;;;;;;8.65;4.85;;;14.70;99.90;;;;;;5070081;28;20053;-77
2022/11/12 02:57:58;;;;;;;9.27;4.88;;;14.70;99.90;;;;;;5055290;28;20067;-77
2022/11/12 03:00:44;;;;;;;9.18;5.47;;;14.70;99.90;;;;;;5055973;28;20049;-77
2022/11/12 03:03:30;;;;;;;10.30;5.20;;;14.70;99.90;;;;;;5070078;28;20048;-77
2022/11/12 03:06:16;;;;;;;8.25;4.57;;;14.70;99.90;;;;;;5055019;28;20843;-76
2022/11/12 03:09:03;;;;;;;9.73;4.55;;;14.80;99.90;;;;;;5069793;28;20060;-78
2022/11/12 03:11:49;;;;;;;9.27;4.50;;;14.80;99.90;;;;;;5056004;28;20044;-78
2022/11/12 03:14:35;;;;;;;7.68;4.45;;;14.80;99.90;;;;;;5049683;28;20467;-78
2022/11/12 03:17:21;;;;;;;9.18;4.85;;;14.80;99.90;;;;;;5050585;28;20049;-77
2022/11/12 03:20:08;;;;;;;9.45;4.90;;;14.80;99.90;;;;;;5049455;28;20559;-78
2022/11/12 03:23:04;;;;;;;;;;;14.80;99.90;;;;;;5050203;28;20041;-77
2022/11/12 03:25:51;;;;;;;12.43;5.00;;;14.80;99.90;;;;;;5052229;28;20359;-77
2022/11/12 03:28:36;;;;;;;8.48;4.78;;;14.90;99.90;;;;;;5049548;28;20043;-78
2022/11/12 03:31:22;;;;;;;16.63;5.78;;;14.90;99.90;;;;;;5051208;28;20467;-78
2022/11/12 03:34:10;;;;;;;7.70;4.47;;;14.90;99.90;;;;;;5035983;28;20059;-78
2022/11/12 03:36:56;;;;;;;9.98;4.88;;;14.90;99.90;;;;;;5035663;28;20052;-78
2022/11/12 03:39:43;;;;;;;9.55;6.13;;;14.90;99.90;;;;;;5035387;28;20102;-77
2022/11/12 03:42:29;;;;;;;10.70;5.75;;;14.90;99.90;;;;;;5034894;28;20060;-77
2022/11/12 03:45:16;;;;;;;8.15;4.53;;;14.80;99.90;;;;;;5049841;28;20049;-78
2022/11/12 03:48:03;;;;;;;14.98;4.63;;;14.80;99.90;;;;;;5035836;28;20102;-77
2022/11/12 03:50:49;;;;;;;8.50;5.35;;;14.80;99.90;;;;;;5049129;28;20407;-77
2022/11/12 03:53:36;;;;;;;8.70;4.60;;;14.80;99.90;;;;;;5035389;28;20053;-78
2022/11/12 03:56:23;;;;;;;11.40;5.07;;;14.80;99.90;;;;;;5048971;28;20064;-78
2022/11/12 03:59:09;;;;;;;10.73;4.65;;;14.70;99.90;;;;;;5048770;28;20053;-79
2022/11/12 04:01:55;;;;;;;9.75;6.03;;;14.80;99.90;;;;;;5038781;28;20395;-79
2022/11/12 04:11:20;;;;;;;12.25;5.03;;;14.80;99.90;;;;;;5049350;28;20139;-78
2022/11/12 04:14:06;;;;;;;9.90;5.75;;;14.90;99.90;;;;;;5049166;28;20118;-78
2022/11/12 04:23:01;;;;;;;7.85;4.75;;;14.90;99.90;;;;;;5068615;28;20060;-77
2022/11/12 04:31:57;;;;;;;10.80;5.45;;;15.10;99.90;;;;;;5048016;28;20049;-78
2022/11/12 04:34:43;;;;;;;10.73;5.45;;;15.10;99.90;;;;;;5034549;28;20134;-79
2022/11/12 04:37:43;;;;;;;10.80;5.80;;;15.10;99.90;;;;;;5034271;28;20407;-78
2022/11/12 04:46:39;;;;;;;7.82;4.88;;;15.20;99.90;;;;;;5048343;28;20053;-77
2022/11/12 04:49:25;;;;;;;7.43;4.55;;;15.30;99.90;;;;;;5033904;28;20484;-78
2022/11/12 04:52:12;;;;;;;12.07;5.78;;;15.30;99.90;;;;;;5034431;28;20053;-80
2022/11/12 04:54:58;;;;;;;10.98;6.28;;;15.30;99.90;;;;;;5048839;28;20123;-78
2022/11/12 04:57:44;;;;;;;;;;;15.40;99.90;;;;;;5049712;28;20439;-78
2022/11/12 05:00:31;;;;;;;9.23;4.78;;;15.40;99.90;;;;;;5034191;28;19921;-77
2022/11/12 05:03:17;;;;;;;9.57;5.13;;;15.50;99.90;;;;;;5048046;28;20387;-78
2022/11/12 05:06:50;;;;;;;12.68;6.03;;;15.40;99.90;;;;;;5048156;28;20041;-78
2022/11/12 05:09:11;;;;;;;10.80;5.93;;;15.40;99.90;;;;;;5052571;28;20170;-78
2022/11/12 05:11:58;;;;;;;9.48;5.82;;;15.50;99.90;;;;;;5062580;28;20051;-77
2022/11/12 05:14:44;;;;;;;9.90;5.07;;;15.50;99.90;;;;;;5054867;28;20086;-79
2022/11/12 05:17:30;;;;;;;7.45;4.70;;;15.50;99.90;;;;;;5054238;28;20063;-78
2022/11/12 05:20:17;;;;;;;8.38;4.97;;;15.50;99.90;;;;;;5054383;28;20049;-78
2022/11/12 05:23:03;;;;;;;19.48;7.07;;;15.50;99.90;;;;;;5068429;28;20041;-78
2022/11/12 05:25:51;;;;;;;6.43;4.65;;;15.50;99.90;;;;;;5068131;28;20537;-78
2022/11/12 05:28:39;;;;;;;12.27;5.78;;;15.50;99.90;;;;;;5068346;28;20048;-78
2022/11/12 05:31:25;;;;;;;8.35;4.88;;;15.50;99.90;;;;;;5068801;28;20102;-79
2022/11/12 05:34:11;;;;;;;9.35;4.90;;;15.50;99.90;;;;;;5068034;28;20048;-78
2022/11/12 05:36:58;;;;;;;8.50;5.78;;;15.50;99.90;;;;;;5054648;28;20041;-78
2022/11/12 05:39:44;;;;;;;7.00;4.57;;;15.50;99.90;;;;;;5069554;28;20036;-78
2022/11/12 05:42:30;;;;;;;10.70;5.60;;;15.50;99.90;;;;;;5068788;28;20473;-77
2022/11/12 05:45:16;;;;;;;8.03;5.03;;;15.50;99.90;;;;;;5068057;28;20333;-77
2022/11/12 05:48:02;;;;;;;10.23;5.65;;;15.50;99.90;;;;;;5054285;28;20044;-78
2022/11/12 05:50:52;;;;;;;9.50;4.57;;;15.50;99.90;;;;;;5054418;28;20499;-77
2022/11/12 05:53:59;;;;;;;10.77;5.68;;;15.50;99.90;;;;;;5068537;28;20125;-77
2022/11/12 05:56:46;;;;;;;11.75;6.03;;;15.50;99.90;;;;;;5068537;28;20172;-77
2022/11/12 05:59:32;;;;;;;8.23;4.95;;;15.60;99.90;;;;;;5055926;28;20045;-78
2022/11/12 06:02:18;;;;;;;8.88;4.95;;;15.50;99.90;;;;;;5054133;28;20044;-77
2022/11/12 06:05:04;;;;;;;11.55;5.68;;;15.60;99.90;;;;;;5069831;28;20056;-79
2022/11/12 06:07:50;;;;;;;9.25;6.15;;;15.50;99.90;;;;;;5057753;28;20053;-78
2022/11/12 06:10:36;;;;;;;6.97;4.70;;;15.60;99.90;;;;;;5071804;28;20190;-78
2022/11/12 06:13:24;;;;;;;10.70;7.30;;;15.60;99.90;;;;;;5071182;28;20060;-77
2022/11/12 06:16:10;;;;;;;12.60;5.95;;;15.70;99.90;;;;;;5056661;28;20049;-78
2022/11/12 06:18:56;;;;;;;12.35;6.72;;;15.70;99.90;;;;;;5070702;28;20043;-77
2022/11/12 06:21:42;;;;;;;9.55;5.55;;;15.80;99.90;;;;;;5052999;28;20387;-76
2022/11/12 06:24:29;;;;;;;11.32;5.88;;;15.80;99.90;;;;;;5061800;28;20641;-81
2022/11/12 06:27:18;;;;;;;9.63;5.95;;;15.90;99.90;;;;;;5067248;28;20108;-75
2022/11/12 06:30:06;;;;;;;10.37;5.40;;;16.00;99.90;;;;;;5069013;28;20059;-75
2022/11/12 06:32:52;;;;;;;7.70;5.63;;;16.00;99.90;;;;;;5058872;28;20391;-77
2022/11/12 06:35:38;;;;;;;9.63;5.35;;;16.20;99.90;;;;;;5054880;28;20542;-76
2022/11/12 06:38:38;;;;;;;10.05;5.57;;;16.30;99.90;;;;;;5058640;28;20101;-80
2022/11/12 06:41:25;;;;;;;11.82;5.50;;;16.50;99.90;;;;;;5053778;28;20355;-75
2022/11/12 06:44:11;;;;;;;10.00;6.28;;;16.60;99.90;;;;;;5051484;28;20119;-76
2022/11/12 06:46:58;;;;;;;12.80;7.22;;;16.80;99.90;;;;;;5068260;28;20052;-78
2022/11/12 06:49:44;;;;;;;10.13;6.22;;;16.80;99.90;;;;;;5064243;28;20121;-79
2022/11/12 06:52:31;;;;;;;10.30;6.82;;;16.90;99.90;;;;;;5064387;28;20477;-77
2022/11/12 06:55:17;;;;;;;13.20;8.45;;;16.80;99.90;;;;;;5050183;28;20163;-76
2022/11/12 06:58:03;;;;;;;15.65;9.95;;;16.90;99.90;;;;;;5064604;28;20513;-76
2022/11/12 07:00:49;;;;;;;18.42;11.20;;;16.90;99.90;;;;;;5068787;28;20829;-76
2022/11/12 07:03:36;;;;;;;20.63;10.65;;;16.90;99.90;;;;;;5054100;28;20060;-79
2022/11/12 07:06:22;;;;;;;19.13;10.95;;;16.90;99.90;;;;;;5048856;28;20077;-76
2022/11/12 07:09:08;;;;;;;19.23;10.60;;;16.90;99.90;;;;;;5053679;28;20502;-76
2022/11/12 07:11:54;;;;;;;15.65;9.18;;;17.00;99.90;;;;;;5061780;28;20398;-78
2022/11/12 07:14:41;;;;;;;11.40;7.03;;;17.10;99.90;;;;;;5070484;28;20075;-77
2022/11/12 07:17:27;;;;;;;9.10;5.22;;;17.20;99.90;;;;;;5055258;28;20040;-77
2022/11/12 07:20:14;;;;;;;11.38;6.97;;;17.20;99.90;;;;;;5070261;28;20089;-78
2022/11/12 07:23:00;;;;;;;8.75;6.15;;;17.20;99.90;;;;;;5068465;28;20055;-79
2022/11/12 07:25:53;;;;;;;;;;;17.20;99.90;;;;;;5056501;28;20048;-78
2022/11/12 07:28:40;;;;;;;9.55;5.20;;;17.20;99.90;;;;;;5069723;28;20401;-78
2022/11/12 07:31:26;;;;;;;11.68;6.22;;;17.20;99.90;;;;;;5040912;28;20045;-78
2022/11/12 07:34:13;;;;;;;11.88;6.63;;;17.20;99.90;;;;;;5050937;28;20064;-78
2022/11/12 07:36:58;;;;;;;8.60;6.10;;;17.20;99.90;;;;;;5035659;28;20503;-78
2022/11/12 07:39:45;;;;;;;13.90;6.22;;;17.20;99.90;;;;;;5051745;28;20059;-77
2022/11/12 07:42:34;;;;;;;12.30;6.30;;;17.20;99.90;;;;;;5051089;28;20052;-77
2022/11/12 07:45:20;;;;;;;9.93;5.10;;;17.30;99.90;;;;;;5036140;28;20103;-78
2022/11/12 07:48:06;;;;;;;6.82;5.00;;;17.30;99.90;;;;;;5035944;28;20049;-74
2022/11/12 07:50:59;;;;;;;6.78;4.47;;;17.50;99.90;;;;;;5049874;28;20057;-73
2022/11/12 07:53:47;;;;;;;6.97;4.07;;;17.70;99.90;;;;;;5048147;28;20152;-73
2022/11/12 07:56:33;;;;;;;8.18;4.38;;;18.00;99.90;;;;;;5048131;28;20049;-73
2022/11/12 07:59:19;;;;;;;7.50;4.25;;;18.30;99.90;;;;;;5048334;28;20044;-73
2022/11/12 08:02:08;;;;;;;7.30;4.07;;;18.60;99.90;;;;;;5048967;28;20454;-77
2022/11/12 08:04:54;;;;;;;4.93;3.30;;;18.70;99.90;;;;;;5048483;28;20045;-73
2022/11/12 08:07:40;;;;;;;9.07;4.53;;;18.80;99.90;;;;;;5034643;28;20055;-74
2022/11/12 08:10:27;;;;;;;7.88;4.53;;;18.60;99.90;;;;;;5055280;28;20052;-77
2022/11/12 08:13:14;;;;;;;8.40;5.30;;;18.40;99.90;;;;;;5071097;28;20139;-74
2022/11/12 08:16:01;;;;;;;9.65;6.28;;;18.30;99.90;;;;;;5063231;28;20043;-73
2022/11/12 08:18:47;;;;;;;7.00;4.22;;;18.10;99.90;;;;;;5065415;28;20044;-73
2022/11/12 08:21:33;;;;;;;7.90;5.13;;;18.10;99.90;;;;;;5055592;28;20067;-75
2022/11/12 08:24:19;;;;;;;7.18;4.40;;;18.10;99.90;;;;;;5057493;28;20049;-74
2022/11/12 08:27:06;;;;;;;5.93;4.82;;;17.90;99.90;;;;;;5061656;28;20119;-77
2022/11/12 08:29:52;;;;;;;8.52;4.47;;;17.80;99.90;;;;;;5062720;28;20138;-75
2022/11/12 08:32:38;;;;;;;6.10;3.75;;;17.70;99.90;;;;;;5042858;28;20056;-73
2022/11/12 08:35:25;;;;;;;7.22;4.03;;;17.60;99.90;;;;;;5064080;28;20044;-75
2022/11/12 08:38:12;;;;;;;5.82;3.85;;;17.60;99.90;;;;;;5049883;28;20133;-74
2022/11/12 08:41:00;;;;;;;6.10;3.92;;;17.50;99.90;;;;;;5061702;28;20454;-73
2022/11/12 08:43:46;;;;;;;7.03;4.53;;;17.40;99.90;;;;;;5062072;28;20036;-73
2022/11/12 08:46:32;;;;;;;5.18;3.50;;;17.30;99.90;;;;;;5062380;28;20085;-74
2022/11/12 08:49:18;;;;;;;28.95;7.03;;;17.20;99.90;;;;;;5050493;28;20562;-72
2022/11/12 08:52:05;;;;;;;15.85;6.43;;;17.20;99.90;;;;;;5057417;28;20696;-73
2022/11/12 08:54:51;;;;;;;9.05;5.32;;;17.20;99.90;;;;;;5048822;28;20097;-74
2022/11/12 08:57:42;;;;;;;6.90;4.32;;;17.20;99.90;;;;;;5060840;28;20516;-72
2022/11/12 09:00:33;;;;;;;8.18;4.13;;;17.20;99.90;;;;;;5065082;28;20125;-72
2022/11/12 09:03:22;;;;;;;7.68;4.13;;;17.20;99.90;;;;;;5062805;28;20198;-74
2022/11/12 09:06:08;;;;;;;6.60;3.85;;;17.30;99.90;;;;;;5078945;28;20040;-73
2022/11/12 09:08:54;;;;;;;7.00;4.38;;;17.20;99.90;;;;;;5066090;28;20414;-73
2022/11/12 09:11:40;;;;;;;6.18;4.00;;;17.10;99.90;;;;;;5058442;28;20112;-72
2022/11/12 09:14:26;;;;;;;8.25;4.43;;;17.00;99.90;;;;;;5061688;28;20121;-73
2022/11/12 09:17:12;;;;;;;11.50;4.40;;;17.00;99.90;;;;;;5065854;28;20036;-73
2022/11/12 09:19:58;;;;;;;8.23;3.87;;;17.00;99.90;;;;;;5062051;28;20036;-72
2022/11/12 09:22:44;;;;;;;5.07;3.58;;;16.90;99.90;;;;;;5061780;28;20293;-74
2022/11/12 09:25:31;;;;;;;7.38;4.22;;;16.90;99.90;;;;;;5057621;28;20051;-74
2022/11/12 09:28:18;;;;;;;7.95;4.15;;;16.90;99.90;;;;;;5055790;28;20527;-74
2022/11/12 09:31:07;;;;;;;6.10;3.47;;;16.90;99.90;;;;;;5045416;28;20049;-74
2022/11/12 09:33:53;;;;;;;6.57;3.85;;;16.80;99.90;;;;;;5064103;28;20044;-74
2022/11/12 09:36:39;;;;;;;6.53;4.90;;;16.80;99.90;;;;;;5047060;28;20135;-74
2022/11/12 09:39:26;;;;;;;8.90;4.75;;;16.80;99.90;;;;;;5061119;28;20086;-73
2022/11/12 09:42:15;;;;;;;8.30;4.97;;;16.80;99.90;;;;;;5060601;28;20103;-73
2022/11/12 09:45:12;;;;;;;7.43;4.38;;;16.70;99.90;;;;;;5062158;28;20450;-74
2022/11/12 09:48:11;;;;;;;8.18;5.60;;;16.60;99.90;;;;;;5066566;28;20056;-73
2022/11/12 09:51:01;;;;;;;9.57;4.75;;;16.60;99.90;;;;;;5066301;28;20039;-72
2022/11/12 09:53:55;;;;;;;7.35;5.10;;;16.60;99.90;;;;;;5065515;28;20063;-74
2022/11/12 09:56:41;;;;;;;6.65;3.97;;;16.60;99.90;;;;;;5065790;28;20083;-74
2022/11/12 09:59:33;;;;;;;8.48;5.20;;;16.70;99.90;;;;;;5055380;28;20089;-73
2022/11/12 10:02:51;;;;;;;7.45;4.07;;;16.60;99.90;;;;;;5062049;28;20052;-73
2022/11/12 10:05:40;;;;;;;9.82;5.18;;;16.70;99.90;;;;;;5050498;28;20120;-73
2022/11/12 10:08:44;;;;;;;10.45;6.05;;;16.70;99.90;;;;;;5068110;28;20132;-75
2022/11/12 10:18:55;;;;;;;9.15;4.90;;;17.00;99.90;;;;;;5069256;28;20069;-73
2022/11/12 10:21:50;;;;;;;10.02;5.55;;;17.00;99.90;;;;;;5053558;28;20036;-74
2022/11/12 10:24:39;;;;;;;10.32;5.13;;;17.00;99.90;;;;;;5057236;28;20380;-73
2022/11/12 10:27:35;;;;;;;9.77;6.20;;;17.10;99.90;;;;;;5065549;28;20681;-77
2022/11/12 10:30:23;;;;;;;11.85;6.28;;;17.10;99.90;;;;;;5070330;28;20052;-73
2022/11/12 10:33:15;;;;;;;7.57;5.53;;;17.20;99.90;;;;;;5066246;28;20056;-73
2022/11/12 10:36:14;;;;;;;12.75;5.50;;;17.20;99.90;;;;;;5068730;28;20041;-74
2022/11/12 10:39:01;;;;;;;11.85;6.15;;;17.30;99.90;;;;;;5068451;28;20040;-74
2022/11/12 10:42:02;;;;;;;9.65;5.75;;;17.40;99.90;;;;;;5068735;28;20143;-73
2022/11/12 10:44:48;;;;;;;7.57;5.57;;;17.50;99.90;;;;;;5069278;28;20375;-74
2022/11/12 10:47:37;;;;;;;6.25;4.20;;;17.50;99.90;;;;;;5067389;28;20387;-74
2022/11/12 10:50:40;;;;;;;6.95;4.30;;;17.50;99.90;;;;;;5066875;28;20091;-73
2022/11/12 10:53:35;;;;;;;8.27;5.10;;;17.50;99.90;;;;;;5067233;28;20517;-72
2022/11/12 10:56:31;;;;;;;8.95;4.53;;;17.50;99.90;;;;;;5068987;28;20046;-72
2022/11/12 10:59:19;;;;;;;7.40;4.20;;;17.50;99.90;;;;;;5069201;28;20051;-73
2022/11/12 11:02:17;;;;;;;7.80;4.55;;;17.50;99.90;;;;;;5065368;28;20036;-73
2022/11/12 11:05:47;;;;;;;10.15;5.82;;;17.50;99.90;;;;;;5068886;28;20154;-74
2022/11/12 11:08:49;;;;;;;12.63;6.18;;;17.50;99.90;;;;;;5062756;28;20060;-72
2022/11/12 11:11:35;;;;;;;14.75;6.95;;;17.50;99.90;;;;;;5035383;28;20057;-72
2022/11/12 11:14:21;;;;;;;11.60;6.50;;;17.60;99.90;;;;;;5062950;28;20055;-74
2022/11/12 11:17:17;;;;;;;9.45;6.15;;;17.60;99.90;;;;;;5067836;28;20044;-73
2022/11/12 11:20:09;;;;;;;11.23;6.72;;;17.60;99.90;;;;;;5063671;28;20044;-75
2022/11/12 11:23:05;;;;;;;12.23;6.22;;;17.60;99.90;;;;;;5060480;28;20115;-74
2022/11/12 11:25:56;;;;;;;11.10;6.15;;;17.60;99.90;;;;;;5068175;28;20048;-75
2022/11/12 11:29:08;;;;;;;9.27;5.57;;;17.60;99.90;;;;;;5065087;28;20078;-73
2022/11/12 11:32:13;;;;;;;8.45;4.85;;;17.60;99.90;;;;;;5051436;28;20192;-74
2022/11/12 11:35:20;;;;;;;12.98;6.68;;;17.60;99.90;;;;;;5050551;28;20643;-72
2022/11/12 11:38:30;;;;;;;7.90;5.05;;;17.50;99.90;;;;;;5067773;28;20048;-73
2022/11/12 11:41:35;;;;;;;10.57;6.57;;;17.50;99.90;;;;;;5067181;28;20186;-73
2022/11/12 11:44:36;;;;;;;9.23;4.47;;;17.50;99.90;;;;;;5064540;28;20040;-74
2022/11/12 11:47:36;;;;;;;12.10;5.95;;;17.60;99.90;;;;;;5050319;28;20098;-76
2022/11/12 11:50:46;;;;;;;8.25;4.35;;;17.60;99.90;;;;;;5066974;28;20040;-74
2022/11/12 11:53:50;;;;;;;8.13;5.30;;;17.60;99.90;;;;;;5066305;28;20064;-75
2022/11/12 11:56:41;;;;;;;7.47;5.30;;;17.60;99.90;;;;;;5052961;28;20048;-75
2022/11/12 11:59:32;;;;;;;11.60;5.20;;;17.50;99.90;;;;;;5065618;28;20032;-73
2022/11/12 12:02:28;;;;;;;9.68;5.07;;;17.50;99.90;;;;;;5067215;28;20103;-74
2022/11/12 12:05:35;;;;;;;8.07;5.10;;;17.50;99.90;;;;;;5067855;28;20041;-73
2022/11/12 12:08:52;;;;;;;9.95;5.00;;;17.50;99.90;;;;;;5067392;28;20193;-76
2022/11/12 12:12:09;;;;;;;8.37;5.23;;;17.50;99.90;;;;;;5065674;28;20047;-74
2022/11/12 12:15:17;;;;;;;13.82;6.22;;;17.50;99.90;;;;;;5067902;28;20337;-74
2022/11/12 12:18:09;;;;;;;8.80;5.13;;;17.60;99.90;;;;;;5061572;28;20048;-73
2022/11/12 12:21:01;;;;;;;8.65;5.47;;;17.70;99.90;;;;;;5063044;28;20044;-74
2022/11/12 12:23:56;;;;;;;14.05;6.75;;;17.90;99.90;;;;;;5058431;28;20062;-74
2022/11/12 12:26:54;;;;;;;8.98;5.93;;;18.20;99.90;;;;;;5057493;28;20543;-74
2022/11/12 12:29:48;;;;;;;11.52;7.53;;;18.20;99.90;;;;;;5058950;28;20067;-74
2022/11/12 12:32:39;;;;;;;11.90;5.93;;;18.20;99.70;;;;;;5063902;28;20044;-75
2022/11/12 12:35:51;;;;;;;11.77;5.28;;;18.30;99.70;;;;;;5061227;28;20170;-74
2022/11/12 12:38:42;;;;;;;8.18;4.93;;;18.30;99.60;;;;;;5061657;28;20040;-73
2022/11/12 12:41:36;;;;;;;9.15;4.97;;;18.30;99.70;;;;;;5060633;28;20064;-76
2022/11/12 12:44:58;;;;;;;8.20;4.75;;;18.30;99.90;;;;;;5077260;28;20132;-72
2022/11/12 12:47:40;;;;;;;8.73;4.80;;;18.50;99.90;;;;;;5063510;28;20085;-78
2022/11/12 12:50:27;;;;;;;8.15;5.00;;;18.50;99.90;;;;;;5062168;28;20051;-73
2022/11/12 12:53:20;;;;;;;9.05;4.82;;;18.40;99.90;;;;;;5058543;28;20135;-73
2022/11/12 12:56:29;;;;;;;11.63;5.45;;;18.30;99.90;;;;;;5063344;28;20123;-73
2022/11/12 12:59:21;;;;;;;9.05;5.57;;;17.90;99.90;;;;;;5060835;28;20040;-73
2022/11/12 13:02:24;;;;;;;8.70;5.55;;;17.40;99.90;;;;;;5063521;28;20033;-79
2022/11/12 13:05:31;;;;;;;7.38;5.45;;;17.20;99.90;;;;;;5063061;28;20166;-74
2022/11/12 13:08:25;;;;;;;9.03;6.03;;;17.00;99.90;;;;;;5058413;28;20549;-72
2022/11/12 13:14:53;;;;;;;10.23;6.25;;;16.80;99.90;;;;;;5060623;28;20068;-73
2022/11/12 13:17:45;;;;;;;9.38;5.18;;;16.80;99.90;;;;;;5070176;28;20044;-74
2022/11/12 13:20:35;;;;;;;9.45;5.80;;;16.80;99.90;;;;;;5069108;28;20132;-75
2022/11/12 13:26:58;;;;;;;7.05;4.55;;;16.70;99.90;;;;;;5069957;28;20132;-73
2022/11/12 13:29:46;;;;;;;7.70;4.05;;;16.30;99.90;;;;;;5071342;28;20051;-74
2022/11/12 13:32:50;;;;;;;10.38;5.68;;;16.10;99.90;;;;;;5072592;28;20048;-74
2022/11/12 13:35:38;;;;;;;9.38;4.43;;;15.90;99.90;;;;;;5072238;28;20494;-73
2022/11/12 13:38:24;;;;;;;6.25;4.50;;;15.80;99.90;;;;;;5072097;28;20048;-73
2022/11/12 13:41:18;;;;;;;10.63;5.72;;;15.60;99.90;;;;;;5070933;28;20052;-73
2022/11/12 13:44:08;;;;;;;10.40;6.85;;;15.50;99.90;;;;;;5070987;28;20064;-73
2022/11/12 13:46:55;;;;;;;13.20;7.20;;;15.40;99.90;;;;;;5071270;28;20051;-74
2022/11/12 13:49:47;;;;;;;14.32;6.38;;;15.30;99.90;;;;;;5056864;28;20062;-75
2022/11/12 13:52:34;;;;;;;8.70;4.35;;;15.20;99.90;;;;;;5056527;28;20045;-76
2022/11/12 13:55:21;;;;;;;10.25;5.95;;;14.90;99.90;;;;;;5066239;28;20056;-73
2022/11/12 13:58:27;;;;;;;9.95;5.00;;;14.60;99.90;;;;;;5064909;28;20045;-81
2022/11/12 14:01:18;;;;;;;12.93;5.72;;;14.50;99.90;;;;;;5062936;28;20052;-74
2022/11/12 14:04:06;;;;;;;11.02;7.32;;;14.30;99.90;;;;;;5036772;28;20064;-78
2022/11/12 14:07:05;;;;;;;15.60;6.57;;;14.30;99.90;;;;;;5045879;28;20498;-77
2022/11/12 14:10:13;;;;;;;9.82;6.50;;;14.20;99.90;;;;;;5055442;28;20490;-76
2022/11/12 14:13:30;;;;;;;10.30;4.97;;;13.80;99.90;;;;;;5059080;28;20124;-76
2022/11/12 14:16:53;;;;;;;5.65;4.10;;;13.50;99.90;;;;;;5062161;28;20044;-73
2022/11/12 14:20:26;;;;;;;5.18;2.63;;;13.20;99.90;;;;;;5043638;28;20379;-73
2022/11/12 14:23:23;;;;;;;7.35;4.60;;;13.20;99.90;;;;;;5058812;28;20075;-75
2022/11/12 14:26:10;;;;;;;;;;;13.30;99.90;;;;;;5054992;28;20054;-73
2022/11/12 14:28:56;;;;;;;7.47;5.45;;;13.30;99.90;;;;;;5044948;28;20019;-74
2022/11/12 14:31:43;;;;;;;13.30;8.43;;;13.40;99.90;;;;;;5059147;28;20106;-73
2022/11/12 14:34:32;;;;;;;12.70;7.25;;;13.40;99.90;;;;;;5055091;28;20139;-72
2022/11/12 14:37:34;;;;;;;11.55;6.95;;;13.40;99.90;;;;;;5054996;28;20079;-73
2022/11/12 14:40:25;;;;;;;13.20;7.75;;;13.50;99.90;;;;;;5052883;28;20087;-76
2022/11/12 14:43:23;;;;;;;13.30;7.30;;;13.60;99.90;;;;;;5056406;28;20053;-72
2022/11/12 14:46:41;;;;;;;11.35;6.53;;;13.60;99.90;;;;;;5058457;28;20075;-72
2022/11/12 14:49:42;;;;;;;11.45;7.00;;;13.60;99.90;;;;;;5063542;28;20067;-75
2022/11/12 14:52:42;;;;;;;18.15;6.72;;;13.70;99.90;;;;;;5042647;28;20495;-73
2022/11/12 14:55:35;;;;;;;11.27;6.10;;;13.70;99.90;;;;;;5078338;28;20491;-74
2022/11/12 14:58:22;;;;;;;8.10;6.38;;;13.60;99.90;;;;;;5052972;28;20411;-73
2022/11/12 15:01:28;;;;;;;13.35;5.90;;;13.50;99.90;;;;;;5061581;28;20049;-73
2022/11/12 15:04:42;;;;;;;11.70;5.60;;;13.40;99.90;;;;;;5058641;28;20044;-73
2022/11/12 15:07:28;;;;;;;7.38;5.65;;;13.30;99.90;;;;;;5067161;28;20040;-73
2022/11/12 15:10:32;;;;;;;10.37;5.93;;;13.30;99.90;;;;;;5066128;28;20048;-75
2022/11/12 15:13:25;;;;;;;9.80;6.65;;;13.30;99.90;;;;;;5065410;28;20406;-74
2022/11/12 15:16:22;;;;;;;12.20;6.68;;;13.30;99.90;;;;;;5057149;28;20041;-72
2022/11/12 15:19:18;;;;;;;11.70;7.07;;;13.30;99.90;;;;;;5059953;28;20143;-73
2022/11/12 15:22:04;;;;;;;10.48;7.00;;;13.30;99.90;;;;;;5066541;28;20089;-76
2022/11/12 15:24:50;;;;;;;14.00;6.68;;;13.30;99.90;;;;;;5050388;28;20052;-73
2022/11/12 15:27:40;;;;;;;10.95;6.30;;;13.20;99.90;;;;;;5064145;28;20457;-77
2022/11/12 15:30:29;;;;;;;9.82;7.10;;;13.30;99.90;;;;;;5043198;28;20808;-73